createdAt,value
2022-10-31T00:01:10.923Z,7.40
2022-10-31T00:03:41.785Z,7.39
2022-10-31T00:06:08.371Z,7.44
2022-10-31T00:08:34.964Z,7.46
2022-10-31T00:11:01.561Z,7.42
2022-10-31T00:13:28.336Z,7.36
2022-10-31T00:15:55.039Z,7.36
2022-10-31T00:18:21.623Z,7.33
2022-10-31T00:20:48.391Z,7.30
2022-10-31T00:23:14.901Z,7.36
2022-10-31T00:25:41.581Z,7.33
2022-10-31T00:28:11.993Z,7.30
2022-10-31T00:30:38.739Z,7.27
2022-10-31T00:33:05.682Z,7.32
2022-10-31T00:35:32.644Z,7.30
2022-10-31T00:37:59.353Z,7.30
2022-10-31T00:40:25.957Z,7.24
2022-10-31T00:42:53.263Z,7.15
2022-10-31T00:45:19.869Z,7.13
2022-10-31T00:47:46.363Z,7.12
2022-10-31T00:50:13.125Z,7.13
2022-10-31T00:52:39.610Z,7.19
2022-10-31T00:55:06.441Z,7.26
2022-10-31T00:57:32.929Z,7.29
2022-10-31T00:59:59.472Z,7.27
2022-10-31T01:02:26.146Z,7.37
2022-10-31T01:04:52.715Z,7.38
2022-10-31T01:07:21.134Z,7.43
2022-10-31T01:09:48.290Z,7.46
2022-10-31T01:12:15.008Z,7.47
2022-10-31T01:14:45.619Z,7.49
2022-10-31T01:17:13.255Z,7.54
2022-10-31T01:19:40.520Z,7.56
2022-10-31T01:22:07.035Z,7.59
2022-10-31T01:24:33.615Z,7.52
2022-10-31T01:27:01.888Z,7.54
2022-10-31T01:29:28.500Z,7.54
2022-10-31T01:31:55.041Z,7.56
2022-10-31T01:34:21.618Z,7.62
2022-10-31T01:36:51.436Z,7.57
2022-10-31T01:39:19.315Z,7.59
2022-10-31T01:41:49.784Z,7.56
2022-10-31T01:44:16.515Z,7.60
2022-10-31T01:46:52.998Z,7.52
2022-10-31T01:49:45.831Z,7.56
2022-10-31T01:52:23.191Z,7.46
2022-10-31T01:55:01.752Z,7.36
2022-10-31T01:57:30.749Z,7.32
2022-10-31T02:00:03.622Z,7.33
2022-10-31T02:02:40.374Z,7.29
2022-10-31T02:05:12.780Z,7.24
2022-10-31T02:07:46.579Z,7.18
2022-10-31T02:10:13.285Z,7.22
2022-10-31T02:12:41.463Z,7.11
2022-10-31T02:15:09.204Z,7.03
2022-10-31T02:17:35.771Z,6.82
2022-10-31T02:20:16.181Z,6.90
2022-10-31T02:22:58.134Z,6.67
2022-10-31T02:25:56.096Z,6.62
2022-10-31T02:28:29.338Z,6.46
2022-10-31T02:31:31.239Z,6.46
2022-10-31T02:34:12.442Z,6.43
2022-10-31T02:36:47.812Z,6.37
2022-10-31T02:39:23.655Z,6.29
2022-10-31T02:42:13.718Z,6.20
2022-10-31T02:45:00.952Z,6.24
2022-10-31T02:47:33.302Z,6.28
2022-10-31T02:50:06.084Z,6.27
2022-10-31T02:52:34.424Z,6.23
2022-10-31T02:55:29.877Z,6.22
2022-10-31T02:58:12.772Z,6.20
2022-10-31T03:00:58.779Z,6.19
2022-10-31T03:03:42.737Z,6.17
2022-10-31T03:06:21.020Z,6.19
2022-10-31T03:08:53.465Z,6.21
2022-10-31T03:11:25.641Z,6.29
2022-10-31T03:14:00.909Z,6.30
2022-10-31T03:16:45.783Z,6.31
2022-10-31T03:19:20.198Z,6.36
2022-10-31T03:21:52.751Z,6.36
2022-10-31T03:24:24.924Z,6.36
2022-10-31T03:26:55.151Z,6.24
2022-10-31T03:29:28.262Z,6.32
2022-10-31T03:31:59.742Z,6.27
2022-10-31T03:34:29.791Z,6.27
2022-10-31T03:37:01.350Z,6.29
2022-10-31T03:39:28.931Z,6.31
2022-10-31T03:42:02.550Z,6.22
2022-10-31T03:44:31.447Z,6.17
2022-10-31T03:47:02.048Z,6.22
2022-10-31T03:49:29.794Z,6.19
2022-10-31T03:52:12.550Z,6.20
2022-10-31T03:54:45.149Z,6.17
2022-10-31T03:57:22.307Z,6.12
2022-10-31T03:59:55.638Z,6.08
2022-10-31T04:02:29.256Z,6.15
2022-10-31T04:04:57.060Z,6.20
2022-10-31T04:07:28.891Z,6.18
2022-10-31T04:09:57.970Z,6.24
2022-10-31T04:12:27.776Z,6.28
2022-10-31T04:15:19.768Z,6.28
2022-10-31T04:17:49.933Z,6.33
2022-10-31T04:20:18.499Z,6.36
2022-10-31T04:22:45.297Z,6.43
2022-10-31T04:25:11.792Z,6.46
2022-10-31T04:27:38.426Z,6.55
2022-10-31T04:30:07.583Z,6.54
2022-10-31T04:32:34.587Z,6.60
2022-10-31T04:35:01.088Z,6.62
2022-10-31T04:37:28.048Z,6.61
2022-10-31T04:39:54.604Z,6.57
2022-10-31T04:42:53.434Z,6.58
2022-10-31T04:45:21.305Z,6.61
2022-10-31T04:47:50.914Z,6.58
2022-10-31T04:50:17.874Z,6.52
2022-10-31T04:52:46.459Z,6.50
2022-10-31T04:55:15.827Z,6.53
2022-10-31T04:58:01.326Z,6.54
2022-10-31T05:00:28.740Z,6.55
2022-10-31T05:02:58.347Z,6.54
2022-10-31T05:05:30.268Z,6.59
2022-10-31T05:07:58.159Z,6.58
2022-10-31T05:10:28.108Z,6.60
2022-10-31T05:12:57.608Z,6.58
2022-10-31T05:15:44.404Z,6.49
2022-10-31T05:18:34.116Z,6.40
2022-10-31T05:21:19.335Z,6.42
2022-10-31T05:23:51.027Z,6.44
2022-10-31T05:26:17.785Z,6.52
2022-10-31T05:28:45.127Z,6.49
2022-10-31T05:31:11.775Z,6.51
2022-10-31T05:33:38.381Z,6.57
2022-10-31T05:36:23.259Z,6.62
2022-10-31T05:38:57.020Z,6.62
2022-10-31T05:41:30.841Z,6.52
2022-10-31T05:44:15.103Z,6.60
2022-10-31T05:46:52.130Z,6.71
2022-10-31T05:49:18.787Z,6.70
2022-10-31T05:52:03.557Z,6.80
2022-10-31T05:54:37.644Z,6.91
2022-10-31T05:57:04.258Z,7.01
2022-10-31T05:59:31.012Z,7.08
2022-10-31T06:01:58.299Z,7.17
2022-10-31T06:04:43.686Z,7.28
2022-10-31T06:07:10.399Z,7.37
2022-10-31T06:09:36.960Z,7.44
2022-10-31T06:12:03.940Z,7.36
2022-10-31T06:14:49.219Z,7.37
2022-10-31T06:17:16.368Z,7.40
2022-10-31T06:19:42.989Z,7.48
2022-10-31T06:22:11.819Z,7.47
2022-10-31T06:24:38.826Z,7.49
2022-10-31T06:27:24.880Z,7.60
2022-10-31T06:29:51.762Z,7.53
2022-10-31T06:32:27.041Z,7.56
2022-10-31T06:34:53.809Z,7.74
2022-10-31T06:37:20.868Z,7.79
2022-10-31T06:39:49.429Z,7.87
2022-10-31T06:42:17.294Z,7.65
2022-10-31T06:44:43.895Z,7.88
2022-10-31T06:47:29.039Z,8.08
2022-10-31T06:50:00.593Z,8.20
2022-10-31T06:52:27.287Z,8.09
2022-10-31T06:54:53.769Z,8.10
2022-10-31T06:57:21.138Z,8.14
2022-10-31T06:59:47.823Z,8.20
2022-10-31T07:02:14.578Z,8.24
2022-10-31T07:04:42.706Z,8.28
2022-10-31T07:07:12.628Z,8.34
2022-10-31T07:09:39.799Z,8.49
2022-10-31T07:12:07.342Z,8.56
2022-10-31T07:14:37.394Z,8.41
2022-10-31T07:17:04.242Z,8.58
2022-10-31T07:19:37.067Z,8.71
2022-10-31T07:22:03.963Z,8.74
2022-10-31T07:24:31.076Z,8.84
2022-10-31T07:27:16.431Z,8.95
2022-10-31T07:29:44.713Z,9.07
2022-10-31T07:32:11.908Z,9.07
2022-10-31T07:34:46.564Z,9.21
2022-10-31T07:37:20.756Z,9.27
2022-10-31T07:39:48.297Z,9.35
2022-10-31T07:42:15.167Z,9.55
2022-10-31T07:44:44.659Z,9.65
2022-10-31T07:47:29.699Z,9.81
2022-10-31T07:50:34.751Z,10.07
2022-10-31T07:53:19.856Z,10.21
2022-10-31T07:55:55.312Z,10.43
2022-10-31T07:58:25.579Z,10.45
2022-10-31T08:00:52.219Z,10.52
2022-10-31T08:03:24.870Z,10.52
2022-10-31T08:06:10.600Z,10.67
2022-10-31T08:08:49.492Z,10.74
2022-10-31T08:11:17.493Z,10.78
2022-10-31T08:13:44.389Z,10.90
2022-10-31T08:16:13.709Z,11.01
2022-10-31T08:18:49.002Z,11.10
2022-10-31T08:21:16.139Z,11.21
2022-10-31T08:23:43.120Z,11.26
2022-10-31T08:26:09.810Z,11.34
2022-10-31T08:28:36.893Z,11.36
2022-10-31T08:31:03.815Z,11.41
2022-10-31T08:33:39.639Z,11.45
2022-10-31T08:36:25.443Z,11.39
2022-10-31T08:39:14.603Z,11.36
2022-10-31T08:41:41.336Z,11.39
2022-10-31T08:44:11.610Z,11.39
2022-10-31T08:46:38.233Z,11.36
2022-10-31T08:49:04.946Z,11.36
2022-10-31T08:51:31.770Z,11.29
2022-10-31T08:53:58.935Z,11.08
2022-10-31T08:56:44.097Z,11.15
2022-10-31T08:59:29.272Z,11.13
2022-10-31T09:02:14.297Z,11.10
2022-10-31T09:04:41.454Z,11.27
2022-10-31T09:07:20.631Z,11.24
2022-10-31T09:09:48.715Z,11.37
2022-10-31T09:12:15.428Z,11.45
2022-10-31T09:14:47.969Z,11.54
2022-10-31T09:17:38.803Z,11.63
2022-10-31T09:20:16.503Z,11.75
2022-10-31T09:22:43.382Z,11.82
2022-10-31T09:25:13.601Z,11.78
2022-10-31T09:27:40.789Z,11.78
2022-10-31T09:30:08.842Z,11.76
2022-10-31T09:32:35.811Z,11.80
2022-10-31T09:35:07.556Z,11.76
2022-10-31T09:37:34.234Z,11.78
2022-10-31T09:40:01.012Z,11.74
2022-10-31T09:42:43.260Z,11.86
2022-10-31T09:45:25.584Z,11.96
2022-10-31T09:48:11.424Z,11.98
2022-10-31T09:50:50.235Z,11.97
2022-10-31T09:53:35.646Z,11.99
2022-10-31T09:56:08.486Z,12.08
2022-10-31T09:58:42.017Z,12.15
2022-10-31T10:01:20.539Z,12.12
2022-10-31T10:03:50.362Z,11.97
2022-10-31T10:06:47.286Z,11.94
2022-10-31T10:09:39.463Z,11.80
2022-10-31T10:12:53.480Z,11.88
2022-10-31T10:15:37.825Z,11.82
2022-10-31T10:18:26.211Z,11.90
2022-10-31T10:21:05.536Z,11.99
2022-10-31T10:24:14.233Z,11.89
2022-10-31T10:26:44.284Z,11.98
2022-10-31T10:29:27.405Z,12.12
2022-10-31T10:31:57.700Z,12.19
2022-10-31T10:34:35.163Z,12.16
2022-10-31T10:37:22.715Z,12.07
2022-10-31T10:39:56.202Z,12.05
2022-10-31T10:42:45.702Z,12.02
2022-10-31T10:45:39.219Z,12.16
2022-10-31T10:48:27.947Z,12.18
2022-10-31T10:50:55.372Z,12.12
2022-10-31T10:53:32.973Z,12.22
2022-10-31T10:56:44.661Z,12.29
2022-10-31T10:59:17.796Z,12.34
2022-10-31T11:01:45.287Z,12.33
2022-10-31T11:04:33.877Z,12.29
2022-10-31T11:07:05.125Z,12.15
2022-10-31T11:09:33.905Z,12.14
2022-10-31T11:12:41.883Z,12.01
2022-10-31T11:15:18.814Z,11.84
2022-10-31T11:17:50.227Z,11.77
2022-10-31T11:20:19.050Z,11.90
2022-10-31T11:22:47.870Z,11.62
2022-10-31T11:25:20.144Z,11.76
2022-10-31T11:27:47.717Z,11.89
2022-10-31T11:30:22.734Z,11.96
2022-10-31T11:32:52.744Z,11.97
2022-10-31T11:35:22.516Z,11.98
2022-10-31T11:37:52.224Z,11.97
2022-10-31T11:40:23.011Z,12.00
2022-10-31T11:42:52.102Z,11.99
2022-10-31T11:45:31.028Z,12.04
2022-10-31T11:48:01.581Z,11.96
2022-10-31T11:50:39.879Z,12.02
2022-10-31T11:53:18.919Z,12.14
2022-10-31T11:55:47.008Z,12.29
2022-10-31T11:58:25.243Z,12.33
2022-10-31T12:00:55.450Z,12.43
2022-10-31T12:04:03.468Z,12.50
2022-10-31T12:06:39.114Z,12.47
2022-10-31T12:09:22.594Z,12.25
2022-10-31T12:12:07.368Z,12.19
2022-10-31T12:14:45.191Z,12.33
2022-10-31T12:17:24.977Z,12.34
2022-10-31T12:20:16.782Z,12.27
2022-10-31T12:23:04.702Z,12.28
2022-10-31T12:25:45.267Z,12.35
2022-10-31T12:28:19.823Z,12.44
2022-10-31T12:30:46.405Z,12.47
2022-10-31T12:33:35.138Z,12.46
2022-10-31T12:36:20.886Z,12.31
2022-10-31T12:39:13.431Z,12.25
2022-10-31T12:41:48.022Z,12.28
2022-10-31T12:44:45.800Z,12.38
2022-10-31T12:47:15.078Z,12.42
2022-10-31T12:49:58.171Z,12.47
2022-10-31T12:52:47.808Z,12.52
2022-10-31T12:55:38.404Z,12.42
2022-10-31T12:58:15.820Z,12.49
2022-10-31T13:00:48.558Z,12.48
2022-10-31T13:03:34.145Z,12.60
2022-10-31T13:06:09.243Z,12.68
2022-10-31T13:08:43.787Z,12.58
2022-10-31T13:11:13.396Z,12.55
2022-10-31T13:13:55.853Z,12.53
2022-10-31T13:16:27.187Z,12.46
2022-10-31T13:19:00.725Z,12.55
2022-10-31T13:21:33.613Z,12.63
2022-10-31T13:24:04.831Z,12.65
2022-10-31T13:26:44.388Z,12.69
2022-10-31T13:29:33.037Z,12.78
2022-10-31T13:32:07.641Z,12.70
2022-10-31T13:34:39.579Z,12.67
2022-10-31T13:37:21.763Z,12.75
2022-10-31T13:40:23.210Z,12.71
2022-10-31T13:43:06.334Z,12.61
2022-10-31T13:45:33.302Z,12.62
2022-10-31T13:48:17.984Z,12.66
2022-10-31T13:51:01.514Z,12.67
2022-10-31T13:53:41.231Z,12.64
2022-10-31T13:56:29.890Z,12.60
2022-10-31T13:59:17.588Z,12.55
2022-10-31T14:02:11.980Z,12.44
2022-10-31T14:04:47.425Z,12.42
2022-10-31T14:07:21.569Z,12.46
2022-10-31T14:10:02.429Z,12.38
2022-10-31T14:12:40.210Z,12.34
2022-10-31T14:15:09.972Z,12.36
2022-10-31T14:17:48.225Z,12.26
2022-10-31T14:20:14.669Z,12.23
2022-10-31T14:22:43.080Z,12.25
2022-10-31T14:25:26.655Z,12.23
2022-10-31T14:27:54.042Z,12.14
2022-10-31T14:30:24.817Z,12.08
2022-10-31T14:33:18.704Z,11.99
2022-10-31T14:36:16.051Z,11.91
2022-10-31T14:39:10.060Z,11.83
2022-10-31T14:42:01.336Z,11.77
2022-10-31T14:44:46.425Z,11.70
2022-10-31T14:47:13.021Z,11.64
2022-10-31T14:49:49.424Z,11.62
2022-10-31T14:52:19.161Z,11.57
2022-10-31T14:54:54.110Z,11.58
2022-10-31T14:57:34.234Z,11.56
2022-10-31T15:00:07.551Z,11.53
2022-10-31T15:03:01.439Z,11.58
2022-10-31T15:05:29.608Z,11.55
2022-10-31T15:07:58.878Z,11.56
2022-10-31T15:10:37.387Z,11.56
2022-10-31T15:13:30.553Z,11.53
2022-10-31T15:15:57.844Z,11.58
2022-10-31T15:18:29.115Z,11.54
2022-10-31T15:20:57.134Z,11.50
2022-10-31T15:23:29.401Z,11.51
2022-10-31T15:26:05.288Z,11.52
2022-10-31T15:28:32.431Z,11.47
2022-10-31T15:31:01.587Z,11.39
2022-10-31T15:33:43.830Z,11.33
2022-10-31T15:36:25.683Z,11.30
2022-10-31T15:38:58.905Z,11.27
2022-10-31T15:41:54.705Z,11.23
2022-10-31T15:44:34.190Z,11.17
2022-10-31T15:47:05.663Z,11.13
2022-10-31T15:49:38.995Z,11.10
2022-10-31T15:52:10.183Z,11.10
2022-10-31T15:54:48.128Z,11.13
2022-10-31T15:57:15.669Z,11.12
2022-10-31T15:59:46.835Z,11.16
2022-10-31T16:02:15.338Z,11.15
2022-10-31T16:04:50.753Z,11.10
2022-10-31T16:07:23.160Z,11.07
2022-10-31T16:09:59.145Z,11.03
2022-10-31T16:12:35.140Z,10.96
2022-10-31T16:15:03.898Z,10.92
2022-10-31T16:17:31.727Z,10.86
2022-10-31T16:20:05.294Z,10.81
2022-10-31T16:22:35.321Z,10.81
2022-10-31T16:25:01.995Z,10.86
2022-10-31T16:27:31.828Z,10.86
2022-10-31T16:30:04.634Z,10.84
2022-10-31T16:32:35.580Z,10.73
2022-10-31T16:35:02.208Z,10.74
2022-10-31T16:37:29.171Z,10.76
2022-10-31T16:39:55.920Z,10.75
2022-10-31T16:42:22.791Z,10.76
2022-10-31T16:44:49.643Z,10.81
2022-10-31T16:47:18.022Z,10.79
2022-10-31T16:49:49.079Z,10.81
2022-10-31T16:52:16.990Z,10.80
2022-10-31T16:54:43.986Z,10.77
2022-10-31T16:57:22.697Z,10.73
2022-10-31T16:59:52.090Z,10.75
2022-10-31T17:02:18.855Z,10.78
2022-10-31T17:04:46.373Z,10.77
2022-10-31T17:07:14.216Z,10.72
2022-10-31T17:09:40.832Z,10.72
2022-10-31T17:12:16.618Z,10.67
2022-10-31T17:14:51.439Z,10.62
2022-10-31T17:17:18.324Z,10.50
2022-10-31T17:19:45.073Z,10.47
2022-10-31T17:22:13.630Z,10.47
2022-10-31T17:24:40.312Z,10.42
2022-10-31T17:27:06.831Z,10.43
2022-10-31T17:29:34.583Z,10.46
2022-10-31T17:32:02.610Z,10.36
2022-10-31T17:34:29.892Z,10.39
2022-10-31T17:36:56.752Z,10.33
2022-10-31T17:39:23.359Z,10.34
2022-10-31T17:41:51.176Z,10.26
2022-10-31T17:44:18.411Z,10.26
2022-10-31T17:46:45.187Z,10.19
2022-10-31T17:49:12.000Z,10.16
2022-10-31T17:51:38.760Z,10.02
2022-10-31T17:54:06.423Z,9.90
2022-10-31T17:56:33.033Z,9.94
2022-10-31T17:58:59.684Z,9.89
2022-10-31T18:01:26.601Z,9.79
2022-10-31T18:03:53.209Z,9.76
2022-10-31T18:06:19.758Z,9.69
2022-10-31T18:08:46.455Z,9.68
2022-10-31T18:11:17.191Z,9.62
2022-10-31T18:13:43.895Z,9.58
2022-10-31T18:16:13.600Z,9.52
2022-10-31T18:18:40.455Z,9.45
2022-10-31T18:21:07.258Z,9.47
2022-10-31T18:23:34.081Z,9.49
2022-10-31T18:26:00.934Z,9.52
2022-10-31T18:28:27.431Z,9.51
2022-10-31T18:30:54.017Z,9.43
2022-10-31T18:33:20.638Z,9.28
2022-10-31T18:35:47.256Z,9.32
2022-10-31T18:38:13.951Z,9.31
2022-10-31T18:40:40.602Z,9.30
2022-10-31T18:43:07.405Z,9.35
2022-10-31T18:45:46.595Z,9.31
2022-10-31T18:48:15.129Z,9.32
2022-10-31T18:50:42.664Z,9.24
2022-10-31T18:53:14.155Z,9.24
2022-10-31T18:55:49.957Z,9.24
2022-10-31T18:58:17.159Z,9.25
2022-10-31T19:00:45.172Z,9.21
2022-10-31T19:03:12.411Z,9.16
2022-10-31T19:05:38.863Z,9.17
2022-10-31T19:08:05.820Z,9.13
2022-10-31T19:10:37.528Z,9.10
2022-10-31T19:13:04.920Z,9.15
2022-10-31T19:15:34.151Z,9.19
2022-10-31T19:18:01.203Z,9.21
2022-10-31T19:20:27.837Z,9.22
2022-10-31T19:22:54.419Z,9.21
2022-10-31T19:25:21.139Z,9.18
2022-10-31T19:27:47.699Z,9.21
2022-10-31T19:30:14.624Z,9.22
2022-10-31T19:32:41.252Z,9.16
2022-10-31T19:35:08.641Z,9.12
2022-10-31T19:37:36.112Z,9.07
2022-10-31T19:40:04.289Z,9.08
2022-10-31T19:42:30.988Z,9.07
2022-10-31T19:44:57.596Z,9.06
2022-10-31T19:47:24.256Z,8.95
2022-10-31T19:49:50.938Z,9.03
2022-10-31T19:52:17.529Z,9.03
2022-10-31T19:54:44.321Z,8.97
2022-10-31T19:57:11.231Z,9.02
2022-10-31T19:59:39.537Z,8.90
2022-10-31T20:02:06.246Z,8.75
2022-10-31T20:04:32.880Z,8.77
2022-10-31T20:06:59.457Z,8.78
2022-10-31T20:09:26.062Z,8.80
2022-10-31T20:11:52.602Z,8.84
2022-10-31T20:14:19.193Z,8.90
2022-10-31T20:16:46.081Z,8.91
2022-10-31T20:19:12.845Z,8.84
2022-10-31T20:21:40.171Z,8.91
2022-10-31T20:24:09.473Z,8.96
2022-10-31T20:26:38.664Z,8.99
2022-10-31T20:29:05.663Z,9.04
2022-10-31T20:31:34.836Z,9.04
2022-10-31T20:34:01.883Z,9.05
2022-10-31T20:36:28.970Z,9.00
2022-10-31T20:38:55.856Z,9.06
2022-10-31T20:41:22.428Z,9.02
2022-10-31T20:43:48.982Z,9.07
2022-10-31T20:46:21.234Z,9.17
2022-10-31T20:48:47.915Z,9.13
2022-10-31T20:51:17.383Z,9.11
2022-10-31T20:53:44.343Z,9.07
2022-10-31T20:56:13.995Z,9.05
2022-10-31T20:58:41.846Z,9.07
2022-10-31T21:01:12.651Z,9.04
2022-10-31T21:03:39.834Z,8.94
2022-10-31T21:06:06.947Z,8.94
2022-10-31T21:08:33.728Z,8.94
2022-10-31T21:11:04.307Z,8.92
2022-10-31T21:13:31.307Z,8.83
2022-10-31T21:16:03.151Z,8.78
2022-10-31T21:18:29.706Z,8.76
2022-10-31T21:20:56.259Z,8.75
2022-10-31T21:23:23.478Z,8.75
2022-10-31T21:25:50.299Z,8.78
2022-10-31T21:28:16.887Z,8.70
2022-10-31T21:30:46.506Z,8.69
2022-10-31T21:33:13.578Z,8.73
2022-10-31T21:35:40.207Z,8.59
2022-10-31T21:38:06.737Z,8.61
2022-10-31T21:40:33.682Z,8.48
2022-10-31T21:43:00.442Z,8.33
2022-10-31T21:45:27.180Z,8.37
2022-10-31T21:47:53.681Z,8.32
2022-10-31T21:50:20.241Z,8.38
2022-10-31T21:52:46.779Z,8.31
2022-10-31T21:55:13.303Z,8.36
2022-10-31T21:57:39.805Z,8.34
2022-10-31T22:00:08.408Z,8.37
2022-10-31T22:02:36.482Z,8.38
2022-10-31T22:05:03.462Z,8.37
2022-10-31T22:07:31.259Z,8.38
2022-10-31T22:09:57.903Z,8.42
2022-10-31T22:12:24.527Z,8.42
2022-10-31T22:14:51.157Z,8.38
2022-10-31T22:17:17.794Z,8.33
2022-10-31T22:19:44.594Z,8.31
2022-10-31T22:22:12.501Z,8.34
2022-10-31T22:24:38.995Z,8.39
2022-10-31T22:27:05.487Z,8.44
2022-10-31T22:29:32.094Z,8.43
2022-10-31T22:31:59.785Z,8.48
2022-10-31T22:34:28.341Z,8.43
2022-10-31T22:36:55.901Z,8.42
2022-10-31T22:39:22.521Z,8.44
2022-10-31T22:41:49.079Z,8.49
2022-10-31T22:44:15.631Z,8.49
2022-10-31T22:46:42.200Z,8.42
2022-10-31T22:49:14.252Z,8.38
2022-10-31T22:51:41.727Z,8.40
2022-10-31T22:54:16.190Z,8.39
2022-10-31T22:56:43.562Z,8.42
2022-10-31T22:59:14.398Z,8.43
2022-10-31T23:01:44.046Z,8.33
2022-10-31T23:06:38.320Z,8.42
2022-10-31T23:09:06.632Z,8.33
2022-10-31T23:11:37.053Z,8.32
2022-10-31T23:14:13.279Z,8.36
2022-10-31T23:16:39.716Z,8.31
2022-10-31T23:19:07.656Z,8.27
2022-10-31T23:21:54.269Z,8.23
2022-10-31T23:24:23.779Z,8.19
2022-10-31T23:27:09.993Z,8.09
2022-10-31T23:29:56.716Z,8.08
2022-10-31T23:32:25.195Z,8.04
2022-10-31T23:34:56.744Z,8.10
2022-10-31T23:37:25.852Z,8.17
2022-10-31T23:39:52.603Z,8.19
2022-10-31T23:42:19.584Z,8.15
2022-10-31T23:44:46.653Z,8.11
2022-10-31T23:47:14.126Z,8.17
2022-10-31T23:49:40.828Z,8.19
2022-10-31T23:52:08.296Z,8.21
2022-10-31T23:54:34.935Z,8.22
2022-10-31T23:57:01.997Z,8.20
2022-10-31T23:59:28.632Z,8.18
